Lester B. Pearson International Airport
CYYZ : now visible

Airfield :











YOU CAN JOIN US ON...

 
LOGIN :

Register | Disclaimer

   EN    FR    IT 

 









Legend :    VFR   Marginal VFR   IFR   Intensive IFR   Very Intensive IFR
Visi :
Ceiling :
>= 8 km
>= 3000ft
5 to 8 km
1000 to 3000 ft
1500m to 5 km
500 to 1000 ft
800 to 1500m
200 to 500 ft
< 800m
< 200 ft
Symbols :   Thunderstorms  Fog  Heavy snow  Heavy precipitations  Wind > 20 kt






- Airport Elevation : 569 ft
- IATA code : YYZ


CYYZ - Lester B. Pearson International

CURRENT METAR :
  • 261500Z 33011KT 15SM BKN057 OVC090 05/02 A3011 RMK SC6AC2 SLP204

EXPIRED METARs :
  • 261400Z 35006KT 15SM BKN057 OVC080 04/02 A3009 RMK SC6AC2 SLP197
  • 261300Z 36007KT 15SM FEW014 SCT058 OVC080 03/01 A3010 RMK SC1SC3AC4 SLP199

TAF TAF CYYZ
Valid from the 26 at 15:00 until the 27 at 18:00 UTC


261438Z 2615/2718 35006KT P6SM FEW015 OVC060
TEMPO 2615/2703 BKN015 OVC060
FM270300 27006KT P6SM SCT020 BKN100 BKN180
BECMG 2707/2709 36010KT
FM271500 07007KT P6SM BKN020 OVC100 RMK NXT FCST BY 261800Z
CZYZ FIR / North America



MET'MAP, your aeronautical weather chart ! - Copyright ORBIFLY December 2007 - Disclaimer

ORBIFLY MET'MAP TEAM :

Programming & Development : Alexandra Zaïnal
Concept & original design : Baudouin d'Aumeries
Assistance for programming : Marc-Olivier Méhu
Technical & hardware support : Manuel Goepfert

Contact : metmap@orbifly.com




SOURCES & CREDITS :

   NOAA       Earth
Advisory